createdAt,value
2019-04-28T00:01:17.706Z,8.02
2019-04-28T00:06:21.247Z,7.80
2019-04-28T00:11:24.629Z,7.64
2019-04-28T00:16:28.019Z,7.53
2019-04-28T00:21:45.104Z,7.49
2019-04-28T00:26:51.936Z,7.33
2019-04-28T00:31:55.392Z,7.34
2019-04-28T00:37:01.313Z,7.34
2019-04-28T00:42:05.023Z,7.19
2019-04-28T00:47:08.915Z,7.14
2019-04-28T00:52:14.251Z,7.09
2019-04-28T00:57:17.876Z,6.95
2019-04-28T01:02:22.899Z,6.96
2019-04-28T01:07:26.300Z,6.92
2019-04-28T01:12:31.101Z,6.76
2019-04-28T01:17:36.250Z,6.83
2019-04-28T01:22:40.196Z,6.73
2019-04-28T01:27:45.240Z,6.79
2019-04-28T01:32:59.668Z,6.76
2019-04-28T01:38:03.037Z,6.79
2019-04-28T01:43:06.593Z,6.80
2019-04-28T01:48:10.216Z,6.85
2019-04-28T01:53:13.840Z,6.86
2019-04-28T01:58:17.229Z,6.87
2019-04-28T02:03:20.722Z,6.79
2019-04-28T02:08:24.081Z,6.87
2019-04-28T02:13:27.468Z,6.99
2019-04-28T02:18:31.024Z,7.09
2019-04-28T02:23:36.283Z,7.18
2019-04-28T02:28:40.733Z,7.19
2019-04-28T02:33:44.138Z,7.29
2019-04-28T02:38:47.756Z,7.29
2019-04-28T02:43:51.240Z,7.27
2019-04-28T02:48:54.624Z,7.33
2019-04-28T02:54:00.499Z,7.39
2019-04-28T02:59:03.342Z,7.38
2019-04-28T03:04:06.974Z,7.41
2019-04-28T03:09:10.697Z,7.47
2019-04-28T03:14:14.167Z,7.54
2019-04-28T03:19:17.638Z,7.60
2019-04-28T03:24:22.213Z,7.69
2019-04-28T03:29:35.944Z,7.70
2019-04-28T03:34:44.490Z,7.68
2019-04-28T03:39:50.418Z,7.64
2019-04-28T03:44:53.746Z,7.59
2019-04-28T03:49:57.151Z,7.54
2019-04-28T03:55:00.822Z,7.48
2019-04-28T04:00:07.421Z,7.45
2019-04-28T04:05:11.337Z,7.41
2019-04-28T04:10:36.531Z,7.30
2019-04-28T04:15:57.150Z,7.17
2019-04-28T04:21:00.907Z,7.07
2019-04-28T04:26:04.403Z,7.02
2019-04-28T04:31:10.233Z,6.98
2019-04-28T04:36:13.092Z,6.91
2019-04-28T04:41:16.708Z,6.79
2019-04-28T04:46:22.395Z,6.79
2019-04-28T04:51:26.095Z,6.76
2019-04-28T04:56:30.151Z,6.81
2019-04-28T05:01:35.623Z,6.79
2019-04-28T05:06:42.307Z,6.82
2019-04-28T05:11:45.693Z,6.92
2019-04-28T05:16:49.730Z,6.94
2019-04-28T05:21:53.143Z,6.98
2019-04-28T05:26:56.526Z,7.05
2019-04-28T05:32:03.265Z,7.23
2019-04-28T05:37:05.257Z,7.28
2019-04-28T05:42:09.765Z,7.35
2019-04-28T05:47:13.987Z,7.45
2019-04-28T05:52:35.004Z,7.48
2019-04-28T05:57:40.261Z,7.50
2019-04-28T06:02:55.936Z,7.57
2019-04-28T06:07:52.830Z,7.91
2019-04-28T06:12:56.456Z,7.97
2019-04-28T06:18:00.205Z,8.12
2019-04-28T06:23:03.544Z,8.33
2019-04-28T06:28:06.999Z,8.33
2019-04-28T06:33:10.388Z,8.39
2019-04-28T06:38:14.007Z,8.17
2019-04-28T06:43:17.393Z,8.00
2019-04-28T06:48:21.037Z,7.93
2019-04-28T06:53:24.441Z,8.07
2019-04-28T06:58:27.840Z,8.30
2019-04-28T07:03:31.242Z,8.47
2019-04-28T07:08:34.659Z,8.58
2019-04-28T07:13:38.051Z,8.63
2019-04-28T07:18:41.436Z,8.58
2019-04-28T07:23:45.127Z,8.71
2019-04-28T07:28:48.523Z,8.72
2019-04-28T07:33:52.147Z,8.96
2019-04-28T07:38:55.533Z,9.20
2019-04-28T07:43:58.915Z,9.63
2019-04-28T07:49:02.316Z,9.67
2019-04-28T07:54:07.343Z,9.41
2019-04-28T07:59:10.753Z,9.46
2019-04-28T08:04:14.156Z,9.40
2019-04-28T08:09:18.632Z,9.22
2019-04-28T08:14:22.035Z,9.39
2019-04-28T08:19:25.417Z,9.29
2019-04-28T08:24:28.823Z,9.50
2019-04-28T08:29:32.448Z,9.87
2019-04-28T08:34:35.837Z,10.07
2019-04-28T08:39:39.465Z,10.08
2019-04-28T08:44:42.853Z,10.24
2019-04-28T08:49:46.714Z,10.44
2019-04-28T08:54:50.110Z,10.76
2019-04-28T08:59:53.501Z,10.40
2019-04-28T09:04:56.893Z,10.42
2019-04-28T09:10:00.358Z,10.33
2019-04-28T09:15:04.986Z,10.51
2019-04-28T09:20:08.715Z,11.20
2019-04-28T09:25:12.100Z,11.03
2019-04-28T09:30:15.761Z,11.20
2019-04-28T09:35:19.155Z,11.29
2019-04-28T09:40:22.543Z,11.09
2019-04-28T09:45:36.412Z,10.97
2019-04-28T09:50:39.800Z,10.85
2019-04-28T09:55:43.191Z,10.95
2019-04-28T10:00:46.577Z,11.47
2019-04-28T10:05:50.209Z,11.92
2019-04-28T10:10:53.595Z,12.15
2019-04-28T10:15:57.226Z,12.36
2019-04-28T10:21:00.615Z,12.41
2019-04-28T10:26:04.084Z,12.27
2019-04-28T10:31:08.343Z,12.21
2019-04-28T10:36:12.470Z,12.18
2019-04-28T10:41:20.161Z,12.02
2019-04-28T10:46:23.798Z,12.15
2019-04-28T10:51:27.189Z,12.72
2019-04-28T10:56:30.835Z,12.66
2019-04-28T11:01:34.246Z,12.56
2019-04-28T11:06:37.868Z,12.59
2019-04-28T11:11:41.340Z,12.48
2019-04-28T11:16:45.312Z,12.04
2019-04-28T11:21:48.716Z,12.60
2019-04-28T11:26:52.115Z,12.72
2019-04-28T11:31:55.509Z,12.61
2019-04-28T11:36:58.896Z,12.42
2019-04-28T11:42:02.296Z,12.53
2019-04-28T11:47:07.633Z,12.92
2019-04-28T11:52:11.282Z,13.37
2019-04-28T11:57:14.673Z,13.95
2019-04-28T12:02:18.080Z,13.75
2019-04-28T12:07:21.554Z,13.16
2019-04-28T12:12:35.469Z,12.95
2019-04-28T12:18:04.242Z,12.66
2019-04-28T12:23:09.771Z,12.46
2019-04-28T12:28:12.928Z,12.41
2019-04-28T12:33:16.349Z,12.39
2019-04-28T12:38:19.743Z,12.42
2019-04-28T12:43:23.368Z,12.94
2019-04-28T12:48:26.757Z,12.76
2019-04-28T12:53:30.497Z,12.67
2019-04-28T12:58:34.129Z,12.85
2019-04-28T13:03:45.096Z,12.95
2019-04-28T13:08:48.485Z,13.16
2019-04-28T13:13:52.115Z,13.18
2019-04-28T13:18:55.499Z,13.12
2019-04-28T13:23:58.894Z,13.25
2019-04-28T13:29:02.292Z,13.16
2019-04-28T13:34:07.333Z,12.77
2019-04-28T13:39:12.419Z,12.94
2019-04-28T13:44:17.445Z,13.00
2019-04-28T13:49:22.500Z,12.87
2019-04-28T13:54:25.877Z,12.98
2019-04-28T13:59:29.269Z,12.93
2019-04-28T14:04:40.285Z,13.10
2019-04-28T14:09:43.701Z,13.85
2019-04-28T14:14:47.052Z,13.74
2019-04-28T14:19:50.466Z,13.36
2019-04-28T14:24:53.871Z,13.06
2019-04-28T14:29:57.221Z,12.93
2019-04-28T14:35:00.653Z,13.02
2019-04-28T14:40:06.221Z,12.80
2019-04-28T14:45:10.031Z,12.83
2019-04-28T14:50:13.520Z,12.78
2019-04-28T14:55:17.317Z,12.87
2019-04-28T15:00:37.546Z,12.97
2019-04-28T15:05:42.875Z,13.13
2019-04-28T15:10:51.167Z,13.23
2019-04-28T15:15:54.545Z,13.67
2019-04-28T15:20:57.945Z,14.26
2019-04-28T15:26:01.340Z,15.01
2019-04-28T15:31:04.764Z,15.52
2019-04-28T15:36:08.421Z,15.49
2019-04-28T15:41:21.397Z,15.49
2019-04-28T15:46:17.232Z,15.57
2019-04-28T15:51:20.632Z,15.79
2019-04-28T15:56:25.970Z,14.50
2019-04-28T16:01:29.379Z,13.83
2019-04-28T16:06:33.047Z,13.43
2019-04-28T16:11:36.473Z,13.13
2019-04-28T16:16:39.906Z,13.02
2019-04-28T16:21:43.283Z,12.86
2019-04-28T16:26:46.680Z,12.55
2019-04-28T16:31:50.086Z,12.34
2019-04-28T16:36:53.513Z,12.33
2019-04-28T16:41:56.927Z,12.18
2019-04-28T16:47:00.348Z,12.16
2019-04-28T16:52:03.749Z,12.03
2019-04-28T16:57:08.806Z,11.96
2019-04-28T17:02:16.742Z,12.11
2019-04-28T17:07:20.252Z,12.32
2019-04-28T17:12:23.648Z,12.39
2019-04-28T17:17:27.045Z,12.42
2019-04-28T17:22:30.458Z,12.56
2019-04-28T17:27:33.865Z,12.56
2019-04-28T17:32:37.340Z,12.46
2019-04-28T17:37:40.812Z,12.32
2019-04-28T17:42:44.202Z,12.21
2019-04-28T17:47:48.414Z,12.09
2019-04-28T17:52:51.885Z,11.91
2019-04-28T17:57:55.268Z,11.86
2019-04-28T18:03:16.490Z,11.85
2019-04-28T18:08:21.376Z,11.96
2019-04-28T18:13:24.908Z,11.96
2019-04-28T18:18:35.627Z,11.43
2019-04-28T18:23:39.019Z,11.09
2019-04-28T18:28:42.450Z,11.12
2019-04-28T18:33:47.720Z,11.04
2019-04-28T18:38:52.774Z,10.60
2019-04-28T18:44:03.635Z,10.54
2019-04-28T18:49:07.014Z,10.40
2019-04-28T18:54:10.450Z,10.14
2019-04-28T18:59:13.841Z,9.89
2019-04-28T19:04:17.403Z,9.62
2019-04-28T19:09:25.328Z,9.42
2019-04-28T19:14:30.358Z,9.21
2019-04-28T19:19:35.412Z,9.05
2019-04-28T19:24:38.780Z,8.88
2019-04-28T19:29:42.422Z,8.70
2019-04-28T19:34:45.824Z,8.58
2019-04-28T19:39:49.300Z,8.56
2019-04-28T19:44:52.686Z,8.46
2019-04-28T19:49:56.067Z,8.44
2019-04-28T19:55:10.148Z,8.35
2019-04-28T20:00:25.283Z,8.35
2019-04-28T20:05:28.672Z,8.29
2019-04-28T20:10:32.200Z,8.26
2019-04-28T20:15:35.585Z,8.37
2019-04-28T20:20:38.971Z,8.32
2019-04-28T20:25:42.356Z,8.07
2019-04-28T20:30:45.791Z,7.99
2019-04-28T20:36:05.696Z,7.87
2019-04-28T20:41:13.213Z,7.73
2019-04-28T20:46:16.604Z,7.73
2019-04-28T20:51:20.224Z,7.67
2019-04-28T20:56:23.621Z,7.56
2019-04-28T21:01:27.240Z,7.36
2019-04-28T21:06:30.632Z,7.32
2019-04-28T21:11:34.022Z,7.37
2019-04-28T21:16:37.410Z,7.31
2019-04-28T21:21:40.796Z,7.27
2019-04-28T21:26:44.181Z,7.24
2019-04-28T21:31:47.804Z,7.13
2019-04-28T21:36:51.188Z,7.17
2019-04-28T21:41:55.544Z,7.16
2019-04-28T21:47:16.560Z,7.25
2019-04-28T21:52:19.943Z,7.29
2019-04-28T21:57:23.332Z,7.33
2019-04-28T22:02:26.720Z,7.49
2019-04-28T22:07:30.107Z,7.59
2019-04-28T22:12:34.378Z,7.66
2019-04-28T22:17:37.768Z,7.66
2019-04-28T22:22:41.149Z,7.62
2019-04-28T22:27:44.533Z,7.53
2019-04-28T22:32:47.921Z,7.38
2019-04-28T22:37:51.307Z,7.34
2019-04-28T22:42:54.926Z,7.26
2019-04-28T22:47:58.311Z,7.12
2019-04-28T22:53:01.696Z,7.09
2019-04-28T22:58:06.730Z,7.03
2019-04-28T23:03:18.636Z,6.88
2019-04-28T23:08:22.272Z,6.93
2019-04-28T23:13:25.651Z,7.01
2019-04-28T23:18:29.252Z,6.90
2019-04-28T23:23:32.826Z,6.84
2019-04-28T23:28:36.554Z,6.82
2019-04-28T23:33:39.942Z,6.84
2019-04-28T23:38:43.566Z,6.91
2019-04-28T23:43:46.944Z,6.85
2019-04-28T23:48:50.400Z,6.79
2019-04-28T23:53:58.530Z,6.67
2019-04-28T23:59:01.921Z,6.64
